Time;durP1;ratioP1;P1;durP2;ratioP2;P2;SDS_P1;SDS_P2;PMS_P1;PMS_P2;Temp;Humidity;BMP_temperature;BMP_pressure;BME280_temperature;BME280_humidity;BME280_pressure;Samples;Min_cycle;Max_cycle;Signal;HPM_P1;HPM_P2
2022/11/19 00:00:41;;;;;;;0.53;0.30;;;8.00;99.90;;;;;;5096712;28;21011;-60
2022/11/19 00:03:10;;;;;;;0.97;0.30;;;7.90;99.90;;;;;;5097550;28;20540;-60
2022/11/19 00:05:39;;;;;;;0.40;0.23;;;7.90;99.90;;;;;;5095726;28;20446;-60
2022/11/19 00:08:06;;;;;;;0.60;0.30;;;7.90;99.90;;;;;;5095721;28;20467;-60
2022/11/19 00:10:34;;;;;;;0.70;0.30;;;7.90;99.90;;;;;;5094331;28;20754;-60
2022/11/19 00:13:00;;;;;;;0.60;0.40;;;7.90;99.90;;;;;;5095946;28;20503;-61
2022/11/19 00:15:27;;;;;;;0.70;0.40;;;7.90;99.90;;;;;;5095656;28;20441;-61
2022/11/19 00:17:54;;;;;;;0.70;0.30;;;7.80;99.90;;;;;;5096103;28;20550;-61
2022/11/19 00:20:22;;;;;;;0.80;0.40;;;7.80;99.90;;;;;;5096583;28;20809;-61
2022/11/19 00:22:51;;;;;;;0.67;0.30;;;7.90;99.90;;;;;;5095950;28;20587;-61
2022/11/19 00:25:18;;;;;;;1.17;0.33;;;7.80;99.90;;;;;;5096215;28;20552;-62
2022/11/19 00:27:45;;;;;;;0.53;0.30;;;7.80;99.90;;;;;;5096969;28;20491;-61
2022/11/19 00:30:13;;;;;;;1.17;0.40;;;7.80;99.90;;;;;;5096996;28;20842;-61
2022/11/19 00:32:40;;;;;;;0.50;0.30;;;7.80;99.90;;;;;;5098361;28;20511;-61
2022/11/19 00:35:08;;;;;;;0.30;0.30;;;7.70;99.90;;;;;;5098276;28;20800;-61
2022/11/19 00:37:36;;;;;;;1.43;0.30;;;7.80;99.90;;;;;;5098483;28;20481;-62
2022/11/19 00:40:04;;;;;;;0.47;0.30;;;7.80;99.90;;;;;;5097755;28;20481;-61
2022/11/19 00:42:31;;;;;;;0.40;0.30;;;7.80;99.90;;;;;;5096503;28;20503;-61
2022/11/19 00:44:58;;;;;;;1.17;0.30;;;7.80;99.90;;;;;;5097615;28;20488;-61
2022/11/19 00:47:25;;;;;;;0.60;0.30;;;7.80;99.90;;;;;;5098144;28;20494;-62
2022/11/19 00:49:52;;;;;;;1.13;0.30;;;7.80;99.90;;;;;;5095899;28;20457;-62
2022/11/19 00:52:19;;;;;;;0.83;0.40;;;7.80;99.90;;;;;;5097086;28;20453;-62
2022/11/19 00:54:47;;;;;;;0.40;0.20;;;7.70;99.90;;;;;;5096787;28;20879;-62
2022/11/19 00:57:14;;;;;;;0.53;0.30;;;7.70;99.90;;;;;;5094110;28;20556;-62
2022/11/19 00:59:41;;;;;;;0.60;0.30;;;7.70;99.90;;;;;;5095343;28;20481;-62
2022/11/19 01:02:08;;;;;;;0.70;0.30;;;7.70;99.90;;;;;;5095155;28;20691;-61
2022/11/19 01:04:35;;;;;;;0.53;0.30;;;7.60;99.90;;;;;;5095056;28;20540;-61
2022/11/19 01:07:01;;;;;;;0.70;0.30;;;7.70;99.90;;;;;;5093424;28;20815;-61
2022/11/19 01:09:28;;;;;;;0.50;0.30;;;7.70;99.90;;;;;;5093345;28;20442;-61
2022/11/19 01:11:57;;;;;;;0.53;0.30;;;7.60;99.90;;;;;;5094429;28;20795;-61
2022/11/19 01:14:24;;;;;;;1.00;0.40;;;7.60;99.90;;;;;;5095059;28;20949;-61
2022/11/19 01:16:50;;;;;;;1.90;0.30;;;7.60;99.90;;;;;;5093816;28;20823;-61
2022/11/19 01:19:17;;;;;;;0.57;0.30;;;7.50;99.90;;;;;;5093113;28;20789;-61
2022/11/19 01:21:44;;;;;;;1.27;0.30;;;7.50;99.90;;;;;;5091843;28;20520;-61
2022/11/19 01:24:11;;;;;;;0.60;0.30;;;7.50;99.90;;;;;;5092864;28;21024;-61
2022/11/19 01:26:38;;;;;;;0.43;0.30;;;7.40;99.90;;;;;;5093908;28;20454;-60
2022/11/19 01:29:06;;;;;;;0.50;0.37;;;7.40;99.90;;;;;;5091238;28;20491;-60
2022/11/19 01:31:33;;;;;;;0.63;0.30;;;7.40;99.90;;;;;;5092462;28;20593;-61
2022/11/19 01:34:00;;;;;;;0.63;0.27;;;7.40;99.90;;;;;;5095113;28;20862;-62
2022/11/19 01:36:29;;;;;;;1.43;0.30;;;7.40;99.90;;;;;;5095244;28;20449;-60
2022/11/19 01:38:57;;;;;;;0.50;0.30;;;7.60;99.90;;;;;;5095021;28;20529;-50
2022/11/19 01:41:26;;;;;;;1.27;0.40;;;7.50;99.90;;;;;;5094361;28;20958;-54
2022/11/19 01:43:57;;;;;;;0.40;0.27;;;7.50;99.90;;;;;;5094247;28;20547;-54
2022/11/19 01:46:28;;;;;;;1.33;0.50;;;7.50;99.90;;;;;;5094069;28;20861;-50
2022/11/19 01:48:59;;;;;;;0.80;0.50;;;7.40;99.90;;;;;;5093858;28;20794;-55
2022/11/19 01:51:29;;;;;;;0.80;0.40;;;7.40;99.90;;;;;;5093324;28;20441;-56
2022/11/19 01:54:00;;;;;;;0.50;0.30;;;7.30;99.90;;;;;;5094494;28;20816;-54
2022/11/19 01:56:28;;;;;;;0.40;0.20;;;7.30;99.90;;;;;;5094133;28;20492;-52
2022/11/19 01:59:00;;;;;;;0.70;0.20;;;7.30;99.90;;;;;;5094886;28;20528;-55
2022/11/19 02:01:29;;;;;;;0.50;0.30;;;7.30;99.90;;;;;;5095607;28;20562;-56
2022/11/19 02:03:59;;;;;;;3.00;0.30;;;7.30;99.90;;;;;;5096140;28;20465;-55
2022/11/19 02:06:27;;;;;;;0.77;0.20;;;7.30;99.90;;;;;;5095221;28;20445;-55
2022/11/19 02:08:54;;;;;;;0.50;0.20;;;7.20;99.90;;;;;;5094514;28;20498;-55
2022/11/19 02:11:56;;;;;;;0.70;0.30;;;7.20;99.90;;;;;;5091297;28;20473;-56
2022/11/19 02:14:50;;;;;;;0.63;0.30;;;7.20;99.90;;;;;;5093574;28;20441;-55
2022/11/19 02:17:27;;;;;;;1.27;0.30;;;7.20;99.90;;;;;;5093113;28;20854;-54
2022/11/19 02:20:54;;;;;;;1.20;0.30;;;7.10;99.90;;;;;;5092187;28;20490;-55
2022/11/19 02:23:38;;;;;;;0.80;0.40;;;7.00;99.90;;;;;;5031037;28;20516;-50
2022/11/19 02:26:53;;;;;;;0.50;0.20;;;7.10;99.90;;;;;;5094861;28;20450;-53
2022/11/19 02:29:41;;;;;;;0.40;0.20;;;7.10;99.90;;;;;;5032353;28;20877;-56
2022/11/19 02:32:12;;;;;;;0.97;0.20;;;7.20;99.90;;;;;;5095075;28;20896;-55
2022/11/19 02:34:46;;;;;;;0.50;0.30;;;7.20;99.90;;;;;;5093421;28;20490;-54
2022/11/19 02:37:17;;;;;;;0.80;0.20;;;7.20;99.90;;;;;;5092212;28;20505;-55
2022/11/19 02:39:50;;;;;;;0.37;0.20;;;7.20;99.90;;;;;;5092038;28;20473;-55
2022/11/19 02:42:21;;;;;;;0.40;0.20;;;7.30;99.90;;;;;;5093223;28;20577;-54
2022/11/19 02:44:58;;;;;;;0.40;0.20;;;7.30;99.90;;;;;;5092820;28;20441;-56
2022/11/19 02:47:28;;;;;;;0.40;0.10;;;7.30;99.90;;;;;;5091895;28;20760;-56
2022/11/19 02:50:02;;;;;;;0.40;0.20;;;7.30;99.90;;;;;;5094105;28;20486;-55
2022/11/19 02:52:29;;;;;;;0.33;0.20;;;7.30;99.90;;;;;;5094689;28;20550;-55
2022/11/19 02:54:56;;;;;;;0.37;0.20;;;7.20;99.90;;;;;;5092193;28;20481;-54
2022/11/19 02:57:23;;;;;;;0.47;0.20;;;7.20;99.90;;;;;;5094880;28;20535;-51
2022/11/19 03:05:34;;;;;;;0.50;0.30;;;7.20;99.90;;;;;;5095327;28;20420;-56
2022/11/19 03:08:02;;;;;;;0.50;0.20;;;7.20;99.90;;;;;;5094363;28;20545;-55
2022/11/19 03:10:36;;;;;;;1.80;0.20;;;7.20;99.90;;;;;;5091909;28;20832;-53
2022/11/19 03:16:40;;;;;;;0.60;0.30;;;7.30;99.90;;;;;;5092527;28;20467;-51
2022/11/19 03:18:48;;;;;;;0.53;0.30;;;7.30;99.90;;;;;;5094199;28;20502;-53
2022/11/19 03:21:21;;;;;;;0.40;0.20;;;7.30;99.90;;;;;;5097323;28;20445;-55
2022/11/19 03:23:53;;;;;;;0.83;0.30;;;7.40;99.90;;;;;;5098017;28;20441;-55
2022/11/19 03:26:24;;;;;;;0.80;0.30;;;7.40;99.90;;;;;;5097548;28;20445;-55
2022/11/19 03:28:53;;;;;;;0.50;0.20;;;7.50;99.90;;;;;;5097794;28;20540;-51
2022/11/19 03:31:23;;;;;;;0.40;0.20;;;7.50;99.90;;;;;;5098798;28;20457;-51
2022/11/19 03:33:54;;;;;;;0.50;0.30;;;7.70;99.90;;;;;;5098800;28;20491;-52
2022/11/19 03:36:26;;;;;;;0.40;0.27;;;7.80;99.90;;;;;;5097892;28;20529;-50
2022/11/19 03:38:58;;;;;;;0.60;0.30;;;7.90;99.90;;;;;;5099639;28;20477;-52
2022/11/19 03:41:27;;;;;;;1.50;0.23;;;7.90;99.90;;;;;;5097958;28;20805;-55
2022/11/19 03:43:58;;;;;;;0.50;0.30;;;7.90;99.90;;;;;;5096776;28;20438;-55
2022/11/19 03:46:27;;;;;;;0.50;0.30;;;7.90;99.90;;;;;;5099031;28;20485;-53
2022/11/19 03:48:56;;;;;;;0.50;0.27;;;7.80;99.90;;;;;;5096170;28;20542;-54
2022/11/19 03:51:32;;;;;;;0.40;0.20;;;7.80;99.90;;;;;;5094956;28;20468;-56
2022/11/19 03:53:59;;;;;;;2.33;0.23;;;7.90;99.90;;;;;;5095243;28;20900;-52
2022/11/19 03:56:28;;;;;;;0.70;0.40;;;8.00;99.90;;;;;;5095568;28;20593;-56
2022/11/19 03:58:55;;;;;;;0.60;0.20;;;8.10;99.90;;;;;;5095721;28;20532;-54
2022/11/19 04:01:22;;;;;;;0.40;0.20;;;8.20;99.90;;;;;;5095818;28;20890;-53
2022/11/19 04:06:31;;;;;;;0.50;0.30;;;8.20;99.90;;;;;;5098116;28;20433;-54
2022/11/19 04:08:58;;;;;;;0.80;0.20;;;8.30;99.90;;;;;;5097036;28;20624;-55
2022/11/19 04:11:25;;;;;;;0.43;0.20;;;8.30;99.90;;;;;;5097012;28;20960;-54
2022/11/19 04:13:52;;;;;;;0.40;0.20;;;8.30;99.90;;;;;;5097637;28;20430;-52
2022/11/19 04:16:19;;;;;;;0.50;0.30;;;8.30;99.90;;;;;;5097331;28;20445;-56
2022/11/19 04:18:46;;;;;;;1.63;0.27;;;8.30;99.90;;;;;;5096887;28;20476;-54
2022/11/19 04:21:14;;;;;;;0.40;0.20;;;8.30;99.90;;;;;;5097194;28;20469;-55
2022/11/19 04:23:41;;;;;;;0.50;0.20;;;8.30;99.90;;;;;;5097325;28;20530;-54
2022/11/19 04:26:08;;;;;;;0.37;0.20;;;8.20;99.90;;;;;;5098591;28;20449;-50
2022/11/19 04:28:35;;;;;;;0.60;0.30;;;8.10;99.90;;;;;;5098856;28;20499;-52
2022/11/19 04:31:02;;;;;;;0.97;0.30;;;8.00;99.90;;;;;;5098036;28;20488;-53
2022/11/19 04:33:29;;;;;;;0.40;0.20;;;8.20;99.90;;;;;;5098641;28;20817;-52
2022/11/19 04:35:55;;;;;;;1.13;0.20;;;8.10;99.90;;;;;;5097534;28;20446;-54
2022/11/19 04:38:24;;;;;;;0.40;0.20;;;8.00;99.90;;;;;;5097239;28;20577;-52
2022/11/19 04:40:51;;;;;;;1.13;0.20;;;8.00;99.90;;;;;;5097083;28;20494;-54
2022/11/19 04:43:18;;;;;;;0.40;0.20;;;7.90;99.90;;;;;;5097800;28;20896;-52
2022/11/19 04:45:44;;;;;;;1.40;0.20;;;7.80;99.90;;;;;;5097325;28;20445;-56
2022/11/19 04:48:11;;;;;;;0.50;0.20;;;7.90;99.90;;;;;;5096859;28;20450;-55
2022/11/19 04:50:38;;;;;;;0.40;0.30;;;7.90;99.90;;;;;;5096203;28;20469;-55
2022/11/19 04:53:05;;;;;;;3.10;0.30;;;7.90;99.90;;;;;;5096536;28;20485;-54
2022/11/19 04:55:33;;;;;;;0.57;0.20;;;7.90;99.90;;;;;;5096548;28;20900;-54
2022/11/19 04:58:00;;;;;;;0.30;0.20;;;7.90;99.90;;;;;;5095886;28;20457;-53
2022/11/19 05:00:27;;;;;;;0.47;0.20;;;7.80;99.90;;;;;;5096992;28;20813;-56
2022/11/19 05:02:54;;;;;;;0.53;0.30;;;7.80;99.90;;;;;;5097735;28;20517;-54
2022/11/19 05:05:21;;;;;;;0.47;0.30;;;7.80;99.90;;;;;;5097855;28;20446;-52
2022/11/19 05:07:48;;;;;;;0.40;0.23;;;7.90;99.90;;;;;;5097403;28;20493;-50
2022/11/19 05:10:15;;;;;;;0.50;0.30;;;7.80;99.90;;;;;;5096976;28;20488;-51
2022/11/19 05:12:43;;;;;;;0.70;0.27;;;7.80;99.90;;;;;;5096367;28;20449;-55
2022/11/19 05:15:11;;;;;;;2.20;0.30;;;7.80;99.90;;;;;;5093691;28;20532;-56
2022/11/19 05:17:38;;;;;;;0.70;0.40;;;7.80;99.90;;;;;;5091676;28;20457;-55
2022/11/19 05:20:05;;;;;;;0.53;0.30;;;7.80;99.90;;;;;;5092317;28;20809;-55
2022/11/19 05:22:32;;;;;;;1.63;0.40;;;7.70;99.90;;;;;;5092467;28;20764;-55
2022/11/19 05:24:59;;;;;;;2.00;0.40;;;7.80;99.90;;;;;;5092612;28;20951;-60
2022/11/19 05:27:26;;;;;;;0.60;0.30;;;7.80;99.90;;;;;;5094581;28;20526;-60
2022/11/19 05:29:54;;;;;;;1.60;0.40;;;7.70;99.90;;;;;;5094378;28;20998;-60
2022/11/19 05:32:21;;;;;;;0.40;0.20;;;7.70;99.90;;;;;;5095106;28;20485;-61
2022/11/19 05:34:48;;;;;;;0.53;0.30;;;7.70;99.90;;;;;;5096780;28;20538;-61
2022/11/19 05:37:15;;;;;;;0.70;0.30;;;7.70;99.90;;;;;;5096923;28;20516;-61
2022/11/19 05:39:42;;;;;;;0.57;0.30;;;7.60;99.90;;;;;;5096877;28;20481;-61
2022/11/19 05:42:09;;;;;;;0.50;0.30;;;7.60;99.90;;;;;;5096785;28;20449;-60
2022/11/19 05:44:36;;;;;;;0.50;0.30;;;7.60;99.90;;;;;;5097254;28;20888;-60
2022/11/19 05:47:04;;;;;;;0.50;0.30;;;7.60;99.90;;;;;;5094560;28;20546;-61
2022/11/19 05:49:31;;;;;;;0.53;0.30;;;7.70;99.90;;;;;;5093532;28;20511;-61
2022/11/19 05:51:58;;;;;;;0.53;0.30;;;7.70;99.90;;;;;;5093987;28;20449;-61
2022/11/19 05:54:25;;;;;;;0.70;0.30;;;7.70;99.90;;;;;;5092860;28;20477;-60
2022/11/19 05:56:52;;;;;;;0.97;0.20;;;7.80;99.90;;;;;;5092674;28;20503;-60
2022/11/19 05:59:19;;;;;;;0.50;0.30;;;7.80;99.90;;;;;;5093723;28;20940;-61
2022/11/19 06:01:46;;;;;;;0.67;0.30;;;7.80;99.90;;;;;;5094681;28;20449;-60
2022/11/19 06:04:14;;;;;;;0.50;0.30;;;7.80;99.90;;;;;;5096045;28;20763;-60
2022/11/19 06:06:41;;;;;;;0.50;0.30;;;7.80;99.90;;;;;;5096046;28;20542;-60
2022/11/19 06:09:08;;;;;;;0.47;0.20;;;7.80;99.90;;;;;;5096391;28;20919;-60
2022/11/19 06:11:48;;;;;;;0.50;0.20;;;7.80;99.90;;;;;;5095786;28;20511;-60
2022/11/19 06:14:16;;;;;;;0.67;0.30;;;7.80;99.90;;;;;;5095206;28;20542;-61
2022/11/19 06:16:43;;;;;;;1.03;0.60;;;7.80;99.90;;;;;;5094926;28;20462;-60
2022/11/19 06:19:10;;;;;;;0.77;0.40;;;7.70;99.90;;;;;;5095075;28;20489;-60
2022/11/19 06:21:38;;;;;;;0.50;0.30;;;7.70;99.90;;;;;;5095302;28;20550;-60
2022/11/19 06:24:05;;;;;;;0.40;0.27;;;7.90;99.90;;;;;;5095180;28;20856;-61
2022/11/19 06:26:32;;;;;;;0.40;0.30;;;7.90;99.90;;;;;;5095685;28;20573;-60
2022/11/19 06:28:59;;;;;;;1.63;0.30;;;7.90;99.90;;;;;;5095749;28;20518;-61
2022/11/19 06:31:26;;;;;;;0.50;0.30;;;7.80;99.90;;;;;;5096127;28;20491;-61
2022/11/19 06:33:53;;;;;;;0.50;0.30;;;7.80;99.90;;;;;;5094915;28;20718;-61
2022/11/19 06:36:20;;;;;;;0.53;0.20;;;7.70;99.90;;;;;;5094458;28;20442;-60
2022/11/19 06:38:49;;;;;;;0.50;0.30;;;7.70;99.90;;;;;;5093850;28;20465;-61
2022/11/19 06:41:16;;;;;;;0.87;0.30;;;7.60;99.90;;;;;;5094406;28;20964;-62
2022/11/19 06:43:43;;;;;;;0.90;0.27;;;7.60;99.90;;;;;;5095053;28;20574;-61
2022/11/19 06:46:11;;;;;;;0.50;0.30;;;7.70;99.90;;;;;;5095653;28;20458;-61
2022/11/19 06:48:38;;;;;;;0.40;0.30;;;7.70;99.90;;;;;;5094492;28;20480;-61
2022/11/19 06:51:05;;;;;;;0.60;0.30;;;7.80;99.90;;;;;;5094839;28;20470;-61
2022/11/19 06:53:33;;;;;;;0.40;0.20;;;7.90;99.90;;;;;;5094870;28;20485;-61
2022/11/19 06:56:03;;;;;;;0.40;0.20;;;8.00;99.90;;;;;;5098114;28;20485;-61
2022/11/19 06:58:30;;;;;;;0.47;0.30;;;8.10;99.90;;;;;;5099774;28;20473;-59
2022/11/19 07:00:57;;;;;;;0.70;0.30;;;8.10;99.90;;;;;;5089344;28;20802;-59
2022/11/19 07:03:25;;;;;;;0.57;0.30;;;8.10;99.90;;;;;;5090371;28;20817;-61
2022/11/19 07:05:57;;;;;;;0.50;0.30;;;8.10;99.90;;;;;;5089528;28;20442;-61
2022/11/19 07:08:25;;;;;;;0.40;0.30;;;8.00;99.90;;;;;;5095869;28;20526;-61
2022/11/19 07:10:55;;;;;;;3.40;0.30;;;7.90;99.90;;;;;;5096330;28;20498;-58
2022/11/19 07:13:23;;;;;;;0.93;0.40;;;7.90;99.90;;;;;;5089279;28;20446;-61
2022/11/19 07:15:50;;;;;;;0.60;0.30;;;7.80;99.90;;;;;;5092756;28;20964;-59
2022/11/19 07:18:17;;;;;;;0.40;0.20;;;7.80;99.90;;;;;;5081864;28;20539;-59
2022/11/19 07:20:45;;;;;;;0.67;0.30;;;7.80;99.90;;;;;;5093942;28;20825;-59
2022/11/19 07:23:12;;;;;;;0.53;0.30;;;7.70;99.90;;;;;;5097986;28;20481;-59
2022/11/19 07:25:39;;;;;;;0.63;0.30;;;7.70;99.90;;;;;;5086009;28;20477;-60
2022/11/19 07:28:06;;;;;;;0.60;0.30;;;7.70;99.90;;;;;;5095504;28;20529;-59
2022/11/19 07:30:35;;;;;;;0.50;0.30;;;7.70;99.90;;;;;;5082666;28;20476;-60
2022/11/19 07:33:02;;;;;;;0.50;0.30;;;7.70;99.90;;;;;;5091437;28;20453;-60
2022/11/19 07:35:28;;;;;;;0.40;0.20;;;7.80;99.90;;;;;;5088773;28;20449;-60
2022/11/19 07:37:55;;;;;;;0.60;0.30;;;7.80;99.90;;;;;;5082326;28;20509;-60
2022/11/19 07:40:23;;;;;;;1.27;0.30;;;7.90;99.90;;;;;;5095744;28;20527;-60
2022/11/19 07:42:51;;;;;;;0.40;0.20;;;7.90;99.90;;;;;;5084077;28;20477;-61
2022/11/19 07:45:19;;;;;;;0.50;0.30;;;7.90;99.90;;;;;;5087538;28;20454;-60
2022/11/19 07:47:48;;;;;;;0.70;0.30;;;8.00;99.90;;;;;;5090294;28;20473;-60
2022/11/19 07:50:16;;;;;;;0.63;0.30;;;8.00;99.90;;;;;;5081478;28;20901;-59
2022/11/19 07:52:43;;;;;;;0.60;0.37;;;7.90;99.90;;;;;;5093633;28;20446;-60
2022/11/19 07:55:10;;;;;;;0.57;0.30;;;8.00;99.90;;;;;;5093114;28;20469;-61
2022/11/19 07:57:37;;;;;;;0.70;0.30;;;8.00;99.90;;;;;;5091712;28;20482;-60
2022/11/19 08:00:06;;;;;;;1.20;0.30;;;8.00;99.90;;;;;;5087914;28;20481;-60
2022/11/19 08:02:32;;;;;;;0.80;0.30;;;8.10;99.90;;;;;;5081815;28;20442;-61
2022/11/19 08:05:01;;;;;;;0.87;0.40;;;8.20;99.90;;;;;;5089774;28;20634;-60
2022/11/19 08:07:28;;;;;;;0.50;0.30;;;8.20;99.90;;;;;;5086913;28;20520;-61
2022/11/19 08:09:54;;;;;;;1.23;0.60;;;8.20;99.90;;;;;;5082914;28;20474;-61
2022/11/19 08:12:21;;;;;;;0.50;0.30;;;8.20;99.90;;;;;;5091722;28;20435;-60
2022/11/19 08:14:48;;;;;;;0.70;0.40;;;8.10;99.90;;;;;;5092259;28;20535;-59
2022/11/19 08:20:01;;;;;;;0.77;0.30;;;8.00;99.90;;;;;;5093063;28;20444;-58
2022/11/19 08:22:28;;;;;;;0.73;0.30;;;8.00;99.90;;;;;;5080089;28;20496;-58
2022/11/19 08:24:55;;;;;;;0.60;0.30;;;8.00;99.90;;;;;;5090722;28;20478;-59
2022/11/19 08:27:22;;;;;;;1.53;0.40;;;8.10;99.90;;;;;;5087613;28;20496;-58
2022/11/19 08:29:49;;;;;;;0.70;0.43;;;8.10;99.90;;;;;;5083293;28;20716;-58
2022/11/19 08:32:16;;;;;;;0.60;0.37;;;8.10;99.90;;;;;;5094015;28;20557;-59
2022/11/19 08:34:43;;;;;;;0.50;0.30;;;8.10;99.90;;;;;;5082358;28;20938;-58
2022/11/19 08:37:12;;;;;;;0.50;0.30;;;8.10;99.90;;;;;;5088184;28;20784;-59
2022/11/19 08:39:39;;;;;;;2.43;0.30;;;8.10;99.90;;;;;;5087018;28;20442;-58
2022/11/19 08:44:53;;;;;;;0.60;0.30;;;8.30;99.90;;;;;;5090736;28;20500;-58
2022/11/19 08:47:19;;;;;;;0.50;0.30;;;8.40;99.90;;;;;;5086973;28;20442;-58
2022/11/19 08:49:46;;;;;;;0.73;0.30;;;8.40;99.90;;;;;;5096104;28;20551;-59
2022/11/19 08:52:15;;;;;;;0.60;0.30;;;8.40;99.90;;;;;;5079371;28;20438;-60
2022/11/19 08:54:42;;;;;;;0.40;0.20;;;8.50;99.90;;;;;;5081352;28;20558;-59
2022/11/19 08:57:09;;;;;;;0.40;0.30;;;8.60;99.90;;;;;;5087513;28;20532;-59
2022/11/19 08:59:36;;;;;;;0.50;0.30;;;8.70;99.90;;;;;;5090133;28;20515;-60
2022/11/19 09:02:03;;;;;;;0.83;0.60;;;8.80;99.90;;;;;;5083727;28;20577;-59
2022/11/19 09:04:30;;;;;;;0.60;0.33;;;8.80;99.90;;;;;;5095930;28;20558;-59
2022/11/19 09:06:57;;;;;;;1.00;0.37;;;8.80;99.90;;;;;;5089452;28;20447;-59
2022/11/19 09:09:25;;;;;;;1.80;0.30;;;8.70;99.90;;;;;;5089512;28;20452;-60
2022/11/19 09:11:54;;;;;;;0.70;0.40;;;8.80;99.90;;;;;;5085150;28;20496;-57
2022/11/19 09:14:21;;;;;;;0.60;0.30;;;8.80;99.90;;;;;;5085834;28;20840;-59
2022/11/19 09:16:48;;;;;;;0.60;0.30;;;8.90;99.90;;;;;;5091800;28;20462;-59
2022/11/19 09:19:15;;;;;;;0.73;0.30;;;8.90;99.90;;;;;;5085764;28;20917;-58
2022/11/19 09:21:41;;;;;;;0.60;0.30;;;9.10;99.90;;;;;;5082837;28;20493;-58
2022/11/19 09:24:08;;;;;;;0.40;0.30;;;9.20;99.90;;;;;;5091302;28;20851;-59
2022/11/19 09:26:37;;;;;;;0.40;0.30;;;9.30;99.90;;;;;;5092968;28;20945;-58
2022/11/19 09:29:04;;;;;;;0.43;0.30;;;9.40;99.90;;;;;;5094746;28;20454;-59
2022/11/19 09:31:31;;;;;;;0.40;0.20;;;9.40;99.90;;;;;;5095855;28;20502;-59
2022/11/19 09:33:57;;;;;;;0.50;0.20;;;9.40;99.90;;;;;;5093200;28;20897;-59
2022/11/19 09:36:24;;;;;;;0.40;0.20;;;9.40;99.90;;;;;;5091277;28;20493;-59
2022/11/19 09:38:56;;;;;;;0.50;0.30;;;9.50;99.90;;;;;;5092359;28;20940;-59
2022/11/19 09:41:42;;;;;;;0.80;0.47;;;9.70;99.90;;;;;;5093725;28;20550;-59
2022/11/19 09:44:22;;;;;;;0.50;0.30;;;9.80;99.90;;;;;;5094683;28;20948;-59
2022/11/19 09:46:56;;;;;;;0.33;0.20;;;9.70;99.90;;;;;;5090412;28;20461;-59
2022/11/19 09:49:30;;;;;;;0.40;0.20;;;9.70;99.90;;;;;;5094436;28;20497;-60
2022/11/19 09:52:03;;;;;;;0.30;0.20;;;9.60;99.90;;;;;;5093439;28;20469;-60
2022/11/19 09:54:31;;;;;;;0.30;0.20;;;9.50;99.90;;;;;;5091489;28;20438;-60
2022/11/19 09:57:08;;;;;;;2.83;0.30;;;9.40;99.90;;;;;;5088717;28;20471;-60
2022/11/19 09:59:37;;;;;;;0.40;0.20;;;9.40;99.90;;;;;;5086885;28;20511;-60
2022/11/19 10:02:15;;;;;;;0.80;0.20;;;9.50;99.90;;;;;;5078152;28;20478;-60
2022/11/19 10:04:43;;;;;;;0.30;0.20;;;9.50;99.90;;;;;;5081124;28;20518;-61
2022/11/19 10:07:17;;;;;;;0.93;0.30;;;9.40;99.90;;;;;;5081935;28;20586;-60
2022/11/19 10:09:54;;;;;;;0.50;0.30;;;9.30;99.90;;;;;;5080762;28;20889;-60
2022/11/19 10:12:39;;;;;;;0.70;0.40;;;9.30;99.90;;;;;;5091237;28;20549;-61
2022/11/19 10:15:21;;;;;;;0.50;0.20;;;9.30;99.90;;;;;;5083271;28;20538;-60
2022/11/19 10:17:59;;;;;;;0.70;0.30;;;9.60;99.90;;;;;;5080239;28;20470;-59
2022/11/19 10:20:44;;;;;;;1.90;0.30;;;9.80;99.90;;;;;;5090383;28;20903;-60
2022/11/19 10:23:16;;;;;;;0.77;0.30;;;10.00;99.90;;;;;;5087127;28;20919;-60
2022/11/19 10:25:45;;;;;;;0.40;0.20;;;10.10;99.90;;;;;;5093057;28;20965;-60
2022/11/19 10:28:15;;;;;;;0.63;0.30;;;10.10;99.90;;;;;;5077740;28;20825;-60
2022/11/19 10:30:47;;;;;;;0.70;0.27;;;10.20;99.90;;;;;;5087915;28;20500;-60
2022/11/19 10:33:21;;;;;;;0.73;0.20;;;10.30;92.00;;;;;;5081304;28;20446;-60
2022/11/19 10:35:52;;;;;;;0.40;0.20;;;10.30;68.30;;;;;;5087235;28;20506;-60
2022/11/19 10:38:24;;;;;;;0.40;0.30;;;10.40;85.20;;;;;;5090320;28;20553;-60
2022/11/19 10:40:57;;;;;;;0.40;0.20;;;10.60;86.10;;;;;;5085171;28;20919;-61
2022/11/19 10:43:29;;;;;;;5.40;1.57;;;10.80;61.90;;;;;;5088518;28;20459;-60
2022/11/19 10:45:58;;;;;;;1.40;0.80;;;10.90;42.10;;;;;;5075099;28;20928;-59
2022/11/19 10:48:32;;;;;;;0.97;0.37;;;10.90;49.70;;;;;;5093364;28;21058;-59
2022/11/19 10:50:59;;;;;;;0.80;0.40;;;10.70;22.30;;;;;;5093904;28;20750;-59
2022/11/19 10:53:31;;;;;;;0.70;0.40;;;10.70;49.10;;;;;;5093826;28;20471;-59
2022/11/19 10:56:00;;;;;;;0.40;0.20;;;10.50;52.00;;;;;;5091469;28;20457;-59
2022/11/19 10:58:33;;;;;;;0.50;0.30;;;10.30;54.50;;;;;;5093066;28;20491;-59
2022/11/19 11:01:02;;;;;;;0.40;0.20;;;10.30;84.00;;;;;;5085337;28;20500;-59
2022/11/19 11:03:34;;;;;;;0.60;0.27;;;10.50;54.90;;;;;;5073649;28;20450;-59
2022/11/19 11:06:04;;;;;;;0.40;0.20;;;10.50;40.10;;;;;;5089568;28;20553;-59
2022/11/19 11:08:31;;;;;;;0.50;0.20;;;10.60;41.50;;;;;;5093056;28;20460;-59
2022/11/19 11:10:58;;;;;;;0.43;0.20;;;10.60;26.20;;;;;;5094064;28;20536;-60
2022/11/19 11:16:25;;;;;;;0.60;0.20;;;10.50;26.50;;;;;;5087248;28;20425;-59
2022/11/19 11:18:53;;;;;;;0.73;0.30;;;10.60;35.10;;;;;;5093548;28;20454;-60
2022/11/19 11:21:33;;;;;;;0.67;0.20;;;10.70;37.70;;;;;;5092641;28;20504;-59
2022/11/19 11:24:03;;;;;;;0.50;0.27;;;10.70;1.00;;;;;;5093148;28;20953;-59
2022/11/19 11:26:32;;;;;;;0.97;0.20;;;10.50;13.20;;;;;;5093269;28;20456;-59
2022/11/19 11:29:04;;;;;;;0.53;0.30;;;10.50;1.00;;;;;;5092073;28;20450;-59
2022/11/19 11:31:36;;;;;;;0.47;0.30;;;10.50;13.20;;;;;;5093705;28;20536;-60
2022/11/19 11:34:05;;;;;;;0.50;0.20;;;10.50;2.10;;;;;;5094894;28;20506;-59
2022/11/19 11:36:34;;;;;;;2.20;0.30;;;10.40;1.00;;;;;;5094008;28;20454;-59
2022/11/19 11:39:04;;;;;;;0.40;0.20;;;10.60;1.00;;;;;;5095033;28;20441;-59
2022/11/19 11:41:37;;;;;;;0.50;0.20;;;10.50;1.00;;;;;;5096328;28;20456;-59
2022/11/19 11:44:15;;;;;;;1.60;0.20;;;10.20;1.00;;;;;;5099275;28;20457;-59
2022/11/19 11:46:45;;;;;;;0.50;0.30;;;10.40;1.00;;;;;;5098744;28;20891;-59
2022/11/19 11:49:23;;;;;;;0.70;0.30;;;10.60;1.00;;;;;;5098886;28;20461;-58
2022/11/19 11:51:59;;;;;;;0.50;0.20;;;10.70;1.00;;;;;;5098726;28;20441;-59
2022/11/19 11:54:26;;;;;;;0.57;0.30;;;10.80;1.00;;;;;;5098981;28;20449;-61
2022/11/19 11:56:53;;;;;;;0.60;0.30;;;10.60;1.00;;;;;;5093773;28;20511;-59
2022/11/19 11:59:28;;;;;;;0.57;0.30;;;10.70;1.00;;;;;;5097669;28;20450;-58
2022/11/19 12:01:56;;;;;;;0.33;0.20;;;10.70;1.00;;;;;;5088997;28;20441;-59
2022/11/19 12:04:24;;;;;;;0.40;0.20;;;10.50;2.40;;;;;;5096726;28;20920;-60
2022/11/19 12:07:12;;;;;;;0.60;0.20;;;10.30;1.00;;;;;;5096661;28;20441;-59
2022/11/19 12:20:22;;;;;;;0.60;0.30;;;10.20;16.40;;;;;;5092816;28;20461;-60
2022/11/19 12:23:15;;;;;;;0.50;0.30;;;10.30;5.20;;;;;;5105566;28;20949;-59
2022/11/19 12:25:51;;;;;;;1.40;0.40;;;10.10;1.00;;;;;;5115595;28;20453;-59
2022/11/19 12:28:36;;;;;;;0.70;0.40;;;10.10;23.50;;;;;;5116874;28;20205;-59
2022/11/19 12:31:13;;;;;;;0.50;0.30;;;10.30;7.70;;;;;;5112129;28;20444;-59
2022/11/19 12:34:09;;;;;;;1.20;0.60;;;10.50;10.40;;;;;;5103428;28;20459;-59
2022/11/19 12:36:49;;;;;;;0.70;0.40;;;10.50;1.00;;;;;;5113917;28;20448;-59
2022/11/19 12:39:31;;;;;;;1.43;0.30;;;10.40;1.00;;;;;;5099115;28;20535;-60
2022/11/19 12:42:16;;;;;;;0.40;0.20;;;10.10;1.00;;;;;;5095924;28;20444;-59
2022/11/19 12:44:53;;;;;;;1.10;0.40;;;10.00;9.40;;;;;;5105248;28;20473;-59
2022/11/19 12:47:31;;;;;;;1.53;0.37;;;10.10;20.60;;;;;;5115032;28;20531;-58
2022/11/19 12:50:18;;;;;;;0.63;0.40;;;10.10;35.00;;;;;;5098103;28;20449;-59
2022/11/19 12:53:06;;;;;;;0.93;0.50;;;10.20;50.90;;;;;;5094794;28;20777;-58
2022/11/19 12:55:40;;;;;;;0.40;0.30;;;10.00;49.20;;;;;;5092747;28;20551;-58
2022/11/19 12:58:18;;;;;;;0.60;0.40;;;9.90;69.30;;;;;;5095326;28;20447;-58
2022/11/19 13:00:53;;;;;;;1.00;0.43;;;9.80;97.20;;;;;;5094134;28;20414;-58
2022/11/19 13:03:29;;;;;;;5.00;2.90;;;9.90;70.50;;;;;;5102418;28;20422;-57
2022/11/19 13:06:00;;;;;;;0.90;0.57;;;9.80;73.50;;;;;;5097684;28;20430;-58
2022/11/19 13:08:34;;;;;;;0.60;0.30;;;9.90;78.20;;;;;;5099487;28;20422;-58
2022/11/19 13:11:08;;;;;;;1.50;1.20;;;10.00;72.80;;;;;;5101410;28;20428;-58
2022/11/19 13:13:39;;;;;;;0.63;0.30;;;10.00;51.70;;;;;;5115791;28;20207;-58
2022/11/19 13:16:10;;;;;;;0.40;0.20;;;10.10;39.90;;;;;;5114599;28;20441;-58
2022/11/19 13:18:43;;;;;;;0.40;0.20;;;10.10;37.30;;;;;;5106086;28;20500;-57
2022/11/19 13:21:20;;;;;;;0.40;0.30;;;10.00;24.70;;;;;;5096352;28;20449;-58
2022/11/19 13:23:50;;;;;;;0.80;0.27;;;10.10;38.30;;;;;;5096396;28;20460;-58
2022/11/19 13:26:22;;;;;;;1.47;0.20;;;10.10;37.10;;;;;;5099255;28;20476;-58
2022/11/19 13:28:54;;;;;;;0.40;0.20;;;10.20;44.90;;;;;;5114353;28;20919;-59
2022/11/19 13:31:29;;;;;;;0.60;0.30;;;10.20;38.60;;;;;;5112126;28;20481;-59
2022/11/19 13:34:00;;;;;;;0.60;0.30;;;10.30;32.40;;;;;;5116437;28;20440;-57
2022/11/19 13:36:33;;;;;;;0.40;0.20;;;10.20;41.20;;;;;;5111685;28;20729;-58
2022/11/19 13:39:12;;;;;;;0.40;0.30;;;10.10;35.30;;;;;;5112839;28;20460;-58
2022/11/19 13:44:37;;;;;;;0.37;0.20;;;10.00;28.60;;;;;;5110477;28;20527;-56